Whenuapai (NZWP)

Aerodrome — Elev 100
New Zealand
S036.47.16.001 E174.37.49.001
Loading chart...

Current Weather

NZWP 190430Z 09009KT 060V130 20KM SCT028 BKN033 OVC040 14/10 Q1014 RMK AUTO VATSIM USE ONLY

Published 40 minutes ago

Airport Activity

Loading chart...
Loading chart...

Standard ATC Positions

CallsignRadio Name / Freq / Voice Room / TypeFrequencyType
NZAA_CTR Auckland Control
123.900
nzaa_ctr
123.900
NZAA_APP Auckland Approach
124.300
nzaa_app
124.300
NZWP_TWR Whenuapai Tower
134.500
nzwp_twr
134.500
NZWP_ATIS Whenuapai ATIS
128.300
nzwp_atis
128.300
UNICOM NZZC UNICOM
122.800
unicom_nzzc
122.800

Event ATC Positions

This airport has additional control positions that are designated for use only during major events.
These non-standard positions must not be staffed unless specifically activated by the VATNZ Airspace Director as part of an official VATNZ event.
At all other times, controllers should use the designated Standard ATC Positions.

CallsignRadio Name / Freq / Voice Room / TypeFrequencyType
NZAA-R_CTR Auckland Control (Raglan)
126.000
nzaa-r_ctr
126.000
NZCH-D_CTR Christchurch Director
129.200
nzch-d_ctr
129.200
NZAA_DEP Auckland Approach
129.600
nzaa_dep
129.600

Charts